createdAt,value
2023-02-26T00:01:36.873Z,0.40
2023-02-26T00:04:05.841Z,0.40
2023-02-26T00:06:35.877Z,0.50
2023-02-26T00:09:05.161Z,0.50
2023-02-26T00:11:33.103Z,0.40
2023-02-26T00:14:00.261Z,0.50
2023-02-26T00:16:33.644Z,0.50
2023-02-26T00:19:03.153Z,0.50
2023-02-26T00:21:31.215Z,0.40
2023-02-26T00:23:58.580Z,0.40
2023-02-26T00:26:27.188Z,0.40
2023-02-26T00:28:55.143Z,0.50
2023-02-26T00:31:24.872Z,0.40
2023-02-26T00:33:56.154Z,0.40
2023-02-26T00:36:41.768Z,0.40
2023-02-26T00:39:44.334Z,0.40
2023-02-26T00:42:11.928Z,0.40
2023-02-26T00:44:39.436Z,0.40
2023-02-26T00:47:17.041Z,0.40
2023-02-26T00:49:49.884Z,0.40
2023-02-26T00:52:52.138Z,0.50
2023-02-26T00:55:19.810Z,0.40
2023-02-26T00:57:46.810Z,0.40
2023-02-26T01:00:14.448Z,0.40
2023-02-26T01:02:42.672Z,0.40
2023-02-26T01:05:10.976Z,0.40
2023-02-26T01:07:58.105Z,0.40
2023-02-26T01:10:25.511Z,0.40
2023-02-26T01:12:52.967Z,0.40
2023-02-26T01:15:20.568Z,0.40
2023-02-26T01:17:59.253Z,0.40
2023-02-26T01:20:41.661Z,0.40
2023-02-26T01:23:24.497Z,0.40
2023-02-26T01:26:02.456Z,0.40
2023-02-26T01:28:30.069Z,0.30
2023-02-26T01:31:01.417Z,0.30
2023-02-26T01:33:47.382Z,0.30
2023-02-26T01:36:28.512Z,0.30
2023-02-26T01:39:16.372Z,0.30
2023-02-26T01:42:06.134Z,0.20
2023-02-26T01:44:42.752Z,0.20
2023-02-26T01:47:17.806Z,0.20
2023-02-26T01:49:45.524Z,0.20
2023-02-26T01:52:49.777Z,0.20
2023-02-26T01:55:28.412Z,0.20
2023-02-26T01:58:00.003Z,0.20
2023-02-26T02:00:27.176Z,0.20
2023-02-26T02:02:54.439Z,0.20
2023-02-26T02:05:42.055Z,0.20
2023-02-26T02:08:09.321Z,0.20
2023-02-26T02:10:36.176Z,0.20
2023-02-26T02:13:45.524Z,0.20
2023-02-26T02:16:36.032Z,0.20
2023-02-26T02:19:24.278Z,0.20
2023-02-26T02:22:03.579Z,0.30
2023-02-26T02:24:52.750Z,0.20
2023-02-26T02:27:30.779Z,0.20
2023-02-26T02:30:36.407Z,0.20
2023-02-26T02:33:21.454Z,0.20
2023-02-26T02:35:57.800Z,0.20
2023-02-26T02:38:35.446Z,0.20
2023-02-26T02:41:26.782Z,0.30
2023-02-26T02:43:55.330Z,0.20
2023-02-26T02:46:27.666Z,0.20
2023-02-26T02:49:03.182Z,0.20
2023-02-26T02:51:37.875Z,0.20
2023-02-26T02:54:17.035Z,0.20
2023-02-26T02:57:06.209Z,0.20
2023-02-26T02:59:52.164Z,0.10
2023-02-26T03:02:47.577Z,0.10
2023-02-26T03:05:15.500Z,0.10
2023-02-26T03:08:04.598Z,0.10
2023-02-26T03:10:32.050Z,0.10
2023-02-26T03:12:59.292Z,0.20
2023-02-26T03:15:42.688Z,0.20
2023-02-26T03:18:41.438Z,0.10
2023-02-26T03:21:25.653Z,0.20
2023-02-26T03:24:18.612Z,0.20
2023-02-26T03:26:54.726Z,0.20
2023-02-26T03:29:49.702Z,0.20
2023-02-26T03:32:25.924Z,0.30
2023-02-26T03:35:09.310Z,0.30
2023-02-26T03:37:47.752Z,0.30
2023-02-26T03:40:22.180Z,0.30
2023-02-26T03:43:14.516Z,0.30
2023-02-26T03:45:45.050Z,0.20
2023-02-26T03:48:16.104Z,0.20
2023-02-26T03:51:06.331Z,0.20
2023-02-26T03:54:05.776Z,0.20
2023-02-26T03:56:45.003Z,0.30
2023-02-26T03:59:16.493Z,0.30
2023-02-26T04:01:52.854Z,0.30
2023-02-26T04:04:48.397Z,0.30
2023-02-26T04:07:17.644Z,0.30
2023-02-26T04:09:47.632Z,0.30
2023-02-26T04:12:15.117Z,0.30
2023-02-26T04:14:46.761Z,0.30
2023-02-26T04:17:14.956Z,0.20
2023-02-26T04:19:41.824Z,0.30
2023-02-26T04:22:08.996Z,0.30
2023-02-26T04:24:36.696Z,0.30
2023-02-26T04:27:03.897Z,0.30
2023-02-26T04:29:32.260Z,0.30
2023-02-26T04:31:59.709Z,0.30
2023-02-26T04:34:29.398Z,0.40
2023-02-26T04:36:57.371Z,0.40
2023-02-26T04:39:24.467Z,0.40
2023-02-26T04:41:51.425Z,0.40
2023-02-26T04:44:18.802Z,0.40
2023-02-26T04:46:45.729Z,0.40
2023-02-26T04:49:12.910Z,0.40
2023-02-26T04:51:43.336Z,0.40
2023-02-26T04:54:12.196Z,0.40
2023-02-26T04:56:39.171Z,0.40
2023-02-26T04:59:06.272Z,0.40
2023-02-26T05:01:33.595Z,0.40
2023-02-26T05:04:01.351Z,0.40
2023-02-26T05:06:28.323Z,0.40
2023-02-26T05:08:55.184Z,0.40
2023-02-26T05:11:22.652Z,0.40
2023-02-26T05:13:49.570Z,0.40
2023-02-26T05:16:17.598Z,0.40
2023-02-26T05:18:44.605Z,0.40
2023-02-26T05:21:12.157Z,0.40
2023-02-26T05:23:39.112Z,0.40
2023-02-26T05:26:06.003Z,0.40
2023-02-26T05:28:34.016Z,0.50
2023-02-26T05:31:01.296Z,0.50
2023-02-26T05:33:28.390Z,0.50
2023-02-26T05:35:55.578Z,0.50
2023-02-26T05:38:22.778Z,0.50
2023-02-26T05:40:50.013Z,0.50
2023-02-26T05:43:16.879Z,0.50
2023-02-26T05:45:43.804Z,0.50
2023-02-26T05:48:11.257Z,0.50
2023-02-26T05:50:38.215Z,0.50
2023-02-26T05:53:05.224Z,0.50
2023-02-26T05:55:32.162Z,0.50
2023-02-26T05:57:59.093Z,0.50
2023-02-26T06:00:26.168Z,0.50
2023-02-26T06:02:53.294Z,0.50
2023-02-26T06:05:20.340Z,0.50
2023-02-26T06:07:47.640Z,0.60
2023-02-26T06:10:14.649Z,0.60
2023-02-26T06:12:41.665Z,0.60
2023-02-26T06:15:09.574Z,0.70
2023-02-26T06:17:39.006Z,0.70
2023-02-26T06:20:08.106Z,0.70
2023-02-26T06:22:34.955Z,0.70
2023-02-26T06:25:01.787Z,0.70
2023-02-26T06:27:28.657Z,0.80
2023-02-26T06:29:55.577Z,0.80
2023-02-26T06:32:22.615Z,0.80
2023-02-26T06:34:49.522Z,0.80
2023-02-26T06:37:16.646Z,0.80
2023-02-26T06:39:43.488Z,0.80
2023-02-26T06:42:10.908Z,0.80
2023-02-26T06:44:37.880Z,0.90
2023-02-26T06:47:04.955Z,0.80
2023-02-26T06:49:31.851Z,0.80
2023-02-26T06:51:58.719Z,0.80
2023-02-26T06:54:25.888Z,0.90
2023-02-26T06:56:53.105Z,0.90
2023-02-26T06:59:20.149Z,0.90
2023-02-26T07:01:47.357Z,0.90
2023-02-26T07:04:14.201Z,1.00
2023-02-26T07:06:41.387Z,1.00
2023-02-26T07:09:08.560Z,1.00
2023-02-26T07:11:35.518Z,1.00
2023-02-26T07:14:02.615Z,1.10
2023-02-26T07:16:29.677Z,1.10
2023-02-26T07:18:56.636Z,1.10
2023-02-26T07:21:23.508Z,1.10
2023-02-26T07:23:50.385Z,0.90
2023-02-26T07:26:17.689Z,0.70
2023-02-26T07:28:44.605Z,0.50
2023-02-26T07:31:11.710Z,0.40
2023-02-26T07:33:39.723Z,0.40
2023-02-26T07:36:07.133Z,0.50
2023-02-26T07:38:33.983Z,0.60
2023-02-26T07:41:00.983Z,0.60
2023-02-26T07:43:27.883Z,0.70
2023-02-26T07:45:54.861Z,0.80
2023-02-26T07:48:22.100Z,0.80
2023-02-26T07:50:52.458Z,0.80
2023-02-26T07:53:19.483Z,0.80
2023-02-26T07:55:46.386Z,0.90
2023-02-26T07:58:13.487Z,0.90
2023-02-26T08:00:40.425Z,0.90
2023-02-26T08:03:07.380Z,0.90
2023-02-26T08:05:34.881Z,1.00
2023-02-26T08:08:02.180Z,1.00
2023-02-26T08:10:30.400Z,0.90
2023-02-26T08:12:57.252Z,0.90
2023-02-26T08:15:24.526Z,0.90
2023-02-26T08:17:54.836Z,1.00
2023-02-26T08:20:21.677Z,1.00
2023-02-26T08:22:48.653Z,1.00
2023-02-26T08:25:15.606Z,1.10
2023-02-26T08:27:42.873Z,1.10
2023-02-26T08:30:10.530Z,1.10
2023-02-26T08:32:37.587Z,1.10
2023-02-26T08:35:04.860Z,1.10
2023-02-26T08:37:31.841Z,1.10
2023-02-26T08:39:58.747Z,1.10
2023-02-26T08:42:25.601Z,1.10
2023-02-26T08:44:52.456Z,1.20
2023-02-26T08:47:28.517Z,1.20
2023-02-26T08:49:56.394Z,1.10
2023-02-26T08:52:23.436Z,1.20
2023-02-26T08:54:50.507Z,1.20
2023-02-26T08:57:17.457Z,1.20
2023-02-26T08:59:44.295Z,1.20
2023-02-26T09:02:12.911Z,1.30
2023-02-26T09:04:39.989Z,1.30
2023-02-26T09:07:07.248Z,1.20
2023-02-26T09:09:34.179Z,1.20
2023-02-26T09:12:01.031Z,1.30
2023-02-26T09:14:27.957Z,1.20
2023-02-26T09:16:54.828Z,1.20
2023-02-26T09:19:21.712Z,1.30
2023-02-26T09:21:48.602Z,1.30
2023-02-26T09:24:15.497Z,1.30
2023-02-26T09:26:42.727Z,1.30
2023-02-26T09:29:09.694Z,1.30
2023-02-26T09:31:36.762Z,1.20
2023-02-26T09:34:03.785Z,1.20
2023-02-26T09:36:31.460Z,1.10
2023-02-26T09:38:58.313Z,1.10
2023-02-26T09:41:33.620Z,1.20
2023-02-26T09:44:12.082Z,1.20
2023-02-26T09:47:09.291Z,1.20
2023-02-26T09:50:07.214Z,1.30
2023-02-26T09:52:59.314Z,1.20
2023-02-26T09:55:43.658Z,1.20
2023-02-26T09:58:23.013Z,1.20
2023-02-26T10:00:58.801Z,1.20
2023-02-26T10:03:34.279Z,1.30
2023-02-26T10:06:13.247Z,1.30
2023-02-26T10:08:58.516Z,1.20
2023-02-26T10:11:53.151Z,1.30
2023-02-26T10:14:38.444Z,1.40
2023-02-26T10:17:16.490Z,1.40
2023-02-26T10:19:47.872Z,1.40
2023-02-26T10:22:33.850Z,1.50
2023-02-26T10:25:22.527Z,1.60
2023-02-26T10:28:28.462Z,1.50
2023-02-26T10:31:04.939Z,1.60
2023-02-26T10:33:50.576Z,1.60
2023-02-26T10:36:28.279Z,1.60
2023-02-26T10:39:03.866Z,1.70
2023-02-26T10:41:34.519Z,1.80
2023-02-26T10:44:24.057Z,1.80
2023-02-26T10:47:05.738Z,1.90
2023-02-26T10:49:55.216Z,2.10
2023-02-26T10:52:25.772Z,2.10
2023-02-26T10:55:17.618Z,2.10
2023-02-26T10:57:51.611Z,2.20
2023-02-26T11:00:20.902Z,2.10
2023-02-26T11:02:52.151Z,2.00
2023-02-26T11:05:28.804Z,2.00
2023-02-26T11:08:18.511Z,1.90
2023-02-26T11:10:48.846Z,1.90
2023-02-26T11:13:15.813Z,2.10
2023-02-26T11:15:46.136Z,2.10
2023-02-26T11:18:18.636Z,2.00
2023-02-26T11:20:47.051Z,2.00
2023-02-26T11:23:18.475Z,2.00
2023-02-26T11:25:46.151Z,2.00
2023-02-26T11:28:29.828Z,1.90
2023-02-26T11:30:57.539Z,1.90
2023-02-26T11:33:33.735Z,1.80
2023-02-26T11:36:03.397Z,1.70
2023-02-26T11:38:31.993Z,1.90
2023-02-26T11:41:00.963Z,1.90
2023-02-26T11:43:40.297Z,1.90
2023-02-26T11:46:07.401Z,2.00
2023-02-26T11:48:37.289Z,2.10
2023-02-26T11:51:05.834Z,2.10
2023-02-26T11:53:41.584Z,2.00
2023-02-26T11:56:14.386Z,2.00
2023-02-26T11:58:45.359Z,2.00
2023-02-26T12:01:14.121Z,2.10
2023-02-26T12:03:46.302Z,2.10
2023-02-26T12:06:18.603Z,2.10
2023-02-26T12:08:46.553Z,2.10
2023-02-26T12:11:25.731Z,2.10
2023-02-26T12:14:05.672Z,2.00
2023-02-26T12:16:57.739Z,1.90
2023-02-26T12:19:41.985Z,1.90
2023-02-26T12:22:30.056Z,1.90
2023-02-26T12:25:11.849Z,1.90
2023-02-26T12:28:00.535Z,1.90
2023-02-26T12:30:49.244Z,1.90
2023-02-26T12:33:55.436Z,1.90
2023-02-26T12:36:49.580Z,1.90
2023-02-26T12:39:32.042Z,1.90
2023-02-26T12:42:16.370Z,1.80
2023-02-26T12:44:43.196Z,1.90
2023-02-26T12:47:22.267Z,1.90
2023-02-26T12:50:23.401Z,2.00
2023-02-26T12:53:14.314Z,2.00
2023-02-26T12:56:23.489Z,1.90
2023-02-26T12:59:21.783Z,1.90
2023-02-26T13:02:01.879Z,1.90
2023-02-26T13:05:06.175Z,2.00
2023-02-26T13:07:39.104Z,2.00
2023-02-26T13:10:28.286Z,2.10
2023-02-26T13:13:07.480Z,2.10
2023-02-26T13:15:37.336Z,2.10
2023-02-26T13:18:20.504Z,2.10
2023-02-26T13:21:00.657Z,2.00
2023-02-26T13:23:41.383Z,1.90
2023-02-26T13:26:11.257Z,1.90
2023-02-26T13:28:54.730Z,1.90
2023-02-26T13:31:45.911Z,1.90
2023-02-26T13:34:19.156Z,1.80
2023-02-26T13:36:47.091Z,1.80
2023-02-26T13:39:25.799Z,1.90
2023-02-26T13:41:57.777Z,1.90
2023-02-26T13:44:36.540Z,1.90
2023-02-26T13:47:23.773Z,1.90
2023-02-26T13:50:17.107Z,1.90
2023-02-26T13:52:56.120Z,1.80
2023-02-26T13:55:47.651Z,1.90
2023-02-26T13:58:23.700Z,1.80
2023-02-26T14:01:27.494Z,1.80
2023-02-26T14:04:14.631Z,1.70
2023-02-26T14:06:46.162Z,1.70
2023-02-26T14:09:21.877Z,1.70
2023-02-26T14:12:01.075Z,1.60
2023-02-26T14:14:40.576Z,1.50
2023-02-26T14:17:08.001Z,1.40
2023-02-26T14:19:45.432Z,1.40
2023-02-26T14:22:52.601Z,1.30
2023-02-26T14:25:30.736Z,1.30
2023-02-26T14:28:19.530Z,1.20
2023-02-26T14:30:53.068Z,1.20
2023-02-26T14:33:29.799Z,1.20
2023-02-26T14:35:57.894Z,1.20
2023-02-26T14:38:32.446Z,1.30
2023-02-26T14:41:05.489Z,1.40
2023-02-26T14:44:02.943Z,1.50
2023-02-26T14:46:30.850Z,1.60
2023-02-26T14:48:58.144Z,1.60
2023-02-26T14:51:37.745Z,1.70
2023-02-26T14:54:15.325Z,1.80
2023-02-26T14:56:42.101Z,1.80
2023-02-26T14:59:59.836Z,1.70
2023-02-26T15:02:37.430Z,1.80
2023-02-26T15:05:07.564Z,1.80
2023-02-26T15:07:58.944Z,1.70
2023-02-26T15:10:45.426Z,1.70
2023-02-26T15:13:15.197Z,1.60
2023-02-26T15:15:54.542Z,1.60
2023-02-26T15:18:24.685Z,1.50
2023-02-26T15:20:54.527Z,1.40
2023-02-26T15:23:38.232Z,1.20
2023-02-26T15:26:07.980Z,1.10
2023-02-26T15:28:38.795Z,1.10
2023-02-26T15:31:08.295Z,1.10
2023-02-26T15:33:35.485Z,1.20
2023-02-26T15:36:13.248Z,1.20
2023-02-26T15:38:42.781Z,1.10
2023-02-26T15:41:11.253Z,1.00
2023-02-26T15:43:38.282Z,1.00
2023-02-26T15:46:07.041Z,1.00
2023-02-26T15:48:42.231Z,1.10
2023-02-26T15:51:12.477Z,1.20
2023-02-26T15:53:49.818Z,1.30
2023-02-26T15:56:37.395Z,1.30
2023-02-26T15:59:17.263Z,1.40
2023-02-26T16:01:44.745Z,1.40
2023-02-26T16:04:18.692Z,1.40
2023-02-26T16:06:48.633Z,1.40
2023-02-26T16:09:19.188Z,1.40
2023-02-26T16:11:47.429Z,1.40
2023-02-26T16:14:22.765Z,1.50
2023-02-26T16:16:53.554Z,1.50
2023-02-26T16:19:30.697Z,1.60
2023-02-26T16:21:59.137Z,1.40
2023-02-26T16:24:29.024Z,1.20
2023-02-26T16:27:01.814Z,1.20
2023-02-26T16:29:31.703Z,1.20
2023-02-26T16:32:01.384Z,1.30
2023-02-26T16:34:37.543Z,1.30
2023-02-26T16:37:26.124Z,1.40
2023-02-26T16:39:57.773Z,1.40
2023-02-26T16:42:50.106Z,1.40
2023-02-26T16:45:49.376Z,1.40
2023-02-26T16:48:22.506Z,1.40
2023-02-26T16:51:08.656Z,1.40
2023-02-26T16:53:45.177Z,1.40
2023-02-26T16:56:19.422Z,1.40
2023-02-26T16:58:50.058Z,1.40
2023-02-26T17:01:20.014Z,1.40
2023-02-26T17:03:50.751Z,1.40
2023-02-26T17:06:19.691Z,1.40
2023-02-26T17:08:57.849Z,1.40
2023-02-26T17:11:30.345Z,1.40
2023-02-26T17:14:22.316Z,1.50
2023-02-26T17:16:50.777Z,1.50
2023-02-26T17:19:18.766Z,1.50
2023-02-26T17:21:54.117Z,1.50
2023-02-26T17:24:29.701Z,1.60
2023-02-26T17:26:57.253Z,1.60
2023-02-26T17:29:31.939Z,1.60
2023-02-26T17:31:59.030Z,1.60
2023-02-26T17:34:25.955Z,1.50
2023-02-26T17:36:54.928Z,1.50
2023-02-26T17:39:21.940Z,1.50
2023-02-26T17:41:49.195Z,1.50
2023-02-26T17:44:16.054Z,1.50
2023-02-26T17:46:43.047Z,1.40
2023-02-26T17:49:11.255Z,1.40
2023-02-26T17:51:38.196Z,1.50
2023-02-26T17:54:05.300Z,1.50
2023-02-26T17:56:35.519Z,1.50
2023-02-26T17:59:04.210Z,1.50
2023-02-26T18:01:31.577Z,1.40
2023-02-26T18:04:00.936Z,1.40
2023-02-26T18:06:31.140Z,1.20
2023-02-26T18:08:58.012Z,1.10
2023-02-26T18:11:26.270Z,1.10
2023-02-26T18:13:55.398Z,1.10
2023-02-26T18:16:28.294Z,1.10
2023-02-26T18:18:55.225Z,1.20
2023-02-26T18:21:22.097Z,1.20
2023-02-26T18:23:48.928Z,1.30
2023-02-26T18:26:19.381Z,1.20
2023-02-26T18:28:46.227Z,1.30
2023-02-26T18:31:13.627Z,1.30
2023-02-26T18:33:41.502Z,1.40
2023-02-26T18:36:10.647Z,1.40
2023-02-26T18:38:37.559Z,1.40
2023-02-26T18:41:04.608Z,1.40
2023-02-26T18:43:31.504Z,1.50
2023-02-26T18:46:01.545Z,1.50
2023-02-26T18:48:28.888Z,1.50
2023-02-26T18:50:55.988Z,1.50
2023-02-26T18:53:23.775Z,1.50
2023-02-26T18:55:53.099Z,1.40
2023-02-26T18:58:21.251Z,1.40
2023-02-26T19:00:48.188Z,1.40
2023-02-26T19:03:15.168Z,1.40
2023-02-26T19:05:42.361Z,1.40
2023-02-26T19:08:10.063Z,1.50
2023-02-26T19:10:37.375Z,1.50
2023-02-26T19:13:04.725Z,1.50
2023-02-26T19:15:31.683Z,1.50
2023-02-26T19:17:58.638Z,1.50
2023-02-26T19:20:25.912Z,1.50
2023-02-26T19:22:52.957Z,1.50
2023-02-26T19:25:24.444Z,1.50
2023-02-26T19:27:53.523Z,1.50
2023-02-26T19:30:22.282Z,1.50
2023-02-26T19:32:50.478Z,1.40
2023-02-26T19:35:18.314Z,1.50
2023-02-26T19:37:45.421Z,1.50
2023-02-26T19:40:16.689Z,1.50
2023-02-26T19:42:44.168Z,1.50
2023-02-26T19:45:12.070Z,1.40
2023-02-26T19:47:39.091Z,1.40
2023-02-26T19:50:08.578Z,1.40
2023-02-26T19:52:37.303Z,1.30
2023-02-26T19:55:06.307Z,1.30
2023-02-26T19:57:33.463Z,1.30
2023-02-26T20:00:00.489Z,1.30
2023-02-26T20:02:27.476Z,1.40
2023-02-26T20:04:54.320Z,1.40
2023-02-26T20:07:21.229Z,1.40
2023-02-26T20:09:49.453Z,1.40
2023-02-26T20:12:16.734Z,1.40
2023-02-26T20:14:43.836Z,1.40
2023-02-26T20:17:13.739Z,1.40
2023-02-26T20:19:40.618Z,1.40
2023-02-26T20:22:07.441Z,1.40
2023-02-26T20:24:34.404Z,1.40
2023-02-26T20:27:01.366Z,1.40
2023-02-26T20:29:28.437Z,1.40
2023-02-26T20:31:55.448Z,1.40
2023-02-26T20:34:22.447Z,1.40
2023-02-26T20:36:50.641Z,1.40
2023-02-26T20:39:21.154Z,1.40
2023-02-26T20:41:48.310Z,1.40
2023-02-26T20:44:15.172Z,1.40
2023-02-26T20:46:42.221Z,1.40
2023-02-26T20:49:12.428Z,1.40
2023-02-26T20:51:41.733Z,1.40
2023-02-26T20:54:17.675Z,1.40
2023-02-26T20:56:45.278Z,1.40
2023-02-26T20:59:12.138Z,1.40
2023-02-26T21:01:38.979Z,1.50
2023-02-26T21:04:07.952Z,1.40
2023-02-26T21:06:35.593Z,1.40
2023-02-26T21:09:03.485Z,1.40
2023-02-26T21:11:31.393Z,1.40
2023-02-26T21:13:58.992Z,1.40
2023-02-26T21:16:28.644Z,1.40
2023-02-26T21:19:03.804Z,1.30
2023-02-26T21:21:31.373Z,1.30
2023-02-26T21:23:58.667Z,1.30
2023-02-26T21:26:27.282Z,1.40
2023-02-26T21:28:54.231Z,1.40
2023-02-26T21:31:22.072Z,1.40
2023-02-26T21:33:53.044Z,1.40
2023-02-26T21:36:21.282Z,1.40
2023-02-26T21:38:49.027Z,1.40
2023-02-26T21:41:15.940Z,1.40
2023-02-26T21:43:42.918Z,1.40
2023-02-26T21:46:09.953Z,1.40
2023-02-26T21:48:36.877Z,1.40
2023-02-26T21:51:04.008Z,1.30
2023-02-26T21:53:30.859Z,1.30
2023-02-26T21:55:58.180Z,1.30
2023-02-26T21:58:25.748Z,1.30
2023-02-26T22:00:52.711Z,1.40
2023-02-26T22:03:19.728Z,1.30
2023-02-26T22:05:49.649Z,1.40
2023-02-26T22:08:16.543Z,1.40
2023-02-26T22:10:45.545Z,1.40
2023-02-26T22:13:12.770Z,1.40
2023-02-26T22:15:39.963Z,1.30
2023-02-26T22:18:06.900Z,1.30
2023-02-26T22:20:33.717Z,1.30
2023-02-26T22:23:00.673Z,1.30
2023-02-26T22:25:27.510Z,1.30
2023-02-26T22:27:54.416Z,1.30
2023-02-26T22:30:21.268Z,1.30
2023-02-26T22:32:48.247Z,1.30
2023-02-26T22:35:17.098Z,1.30
2023-02-26T22:37:44.449Z,1.30
2023-02-26T22:40:13.722Z,1.30
2023-02-26T22:42:42.390Z,1.30
2023-02-26T22:45:12.016Z,1.20
2023-02-26T22:47:39.200Z,1.20
2023-02-26T22:50:06.438Z,1.20
2023-02-26T22:52:33.295Z,1.20
2023-02-26T22:55:00.245Z,1.20
2023-02-26T22:57:27.283Z,1.10
2023-02-26T22:59:54.168Z,1.10
2023-02-26T23:02:20.990Z,1.10
2023-02-26T23:04:48.365Z,1.10
2023-02-26T23:07:15.312Z,1.10
2023-02-26T23:09:42.422Z,1.00
2023-02-26T23:12:10.311Z,1.10
2023-02-26T23:14:37.307Z,1.10
2023-02-26T23:17:04.347Z,1.00
2023-02-26T23:19:31.499Z,1.10
2023-02-26T23:21:58.487Z,1.10
2023-02-26T23:24:25.588Z,1.10
2023-02-26T23:26:52.566Z,1.10
2023-02-26T23:29:19.508Z,1.10
2023-02-26T23:31:46.582Z,1.10
2023-02-26T23:34:13.691Z,1.10
2023-02-26T23:36:40.682Z,1.20
2023-02-26T23:39:08.692Z,1.20
2023-02-26T23:41:36.166Z,1.20
2023-02-26T23:44:03.193Z,1.20
2023-02-26T23:46:30.293Z,1.20
2023-02-26T23:48:59.192Z,1.20
2023-02-26T23:51:26.616Z,1.20
2023-02-26T23:53:53.743Z,1.20
2023-02-26T23:56:21.067Z,1.20
2023-02-26T23:58:48.017Z,1.20
